sensor_id;sensor_type;location;lat;lon;timestamp;P1;durP1;ratioP1;P2;durP2;ratioP2
75316;SDS011;63913;51.492;10.368;2023-02-15T00:01:10;2.72;;;1.67;;
75316;SDS011;63913;51.492;10.368;2023-02-15T00:03:36;5.32;;;2.40;;
75316;SDS011;63913;51.492;10.368;2023-02-15T00:06:03;3.03;;;2.10;;
75316;SDS011;63913;51.492;10.368;2023-02-15T00:08:29;3.60;;;2.38;;
75316;SDS011;63913;51.492;10.368;2023-02-15T00:11:03;3.45;;;2.10;;
75316;SDS011;63913;51.492;10.368;2023-02-15T00:13:32;3.95;;;1.65;;
75316;SDS011;63913;51.492;10.368;2023-02-15T00:16:05;2.38;;;1.48;;
75316;SDS011;63913;51.492;10.368;2023-02-15T00:18:32;2.10;;;1.85;;
75316;SDS011;63913;51.492;10.368;2023-02-15T00:20:58;4.70;;;2.05;;
75316;SDS011;63913;51.492;10.368;2023-02-15T00:23:23;2.08;;;1.23;;
75316;SDS011;63913;51.492;10.368;2023-02-15T00:25:49;2.97;;;1.77;;
75316;SDS011;63913;51.492;10.368;2023-02-15T00:28:15;2.85;;;1.60;;
75316;SDS011;63913;51.492;10.368;2023-02-15T00:30:40;2.38;;;1.63;;
75316;SDS011;63913;51.492;10.368;2023-02-15T00:33:05;3.50;;;1.77;;
75316;SDS011;63913;51.492;10.368;2023-02-15T00:35:32;3.70;;;1.90;;
75316;SDS011;63913;51.492;10.368;2023-02-15T00:37:57;5.67;;;2.70;;
75316;SDS011;63913;51.492;10.368;2023-02-15T00:40:22;3.70;;;1.73;;
75316;SDS011;63913;51.492;10.368;2023-02-15T00:42:48;2.87;;;1.87;;
75316;SDS011;63913;51.492;10.368;2023-02-15T00:45:13;3.42;;;1.77;;
75316;SDS011;63913;51.492;10.368;2023-02-15T00:47:39;2.15;;;1.50;;
75316;SDS011;63913;51.492;10.368;2023-02-15T00:50:04;4.20;;;1.73;;
75316;SDS011;63913;51.492;10.368;2023-02-15T00:52:30;2.80;;;1.52;;
75316;SDS011;63913;51.492;10.368;2023-02-15T00:54:56;2.53;;;1.48;;
75316;SDS011;63913;51.492;10.368;2023-02-15T00:57:21;3.40;;;1.83;;
75316;SDS011;63913;51.492;10.368;2023-02-15T00:59:46;1.27;;;1.10;;
75316;SDS011;63913;51.492;10.368;2023-02-15T01:02:12;2.08;;;1.40;;
75316;SDS011;63913;51.492;10.368;2023-02-15T01:04:37;2.17;;;1.40;;
75316;SDS011;63913;51.492;10.368;2023-02-15T01:07:02;3.60;;;1.37;;
75316;SDS011;63913;51.492;10.368;2023-02-15T01:09:31;1.75;;;1.35;;
75316;SDS011;63913;51.492;10.368;2023-02-15T01:11:57;1.43;;;0.87;;
75316;SDS011;63913;51.492;10.368;2023-02-15T01:14:25;3.30;;;1.70;;
75316;SDS011;63913;51.492;10.368;2023-02-15T01:16:50;2.43;;;1.50;;
75316;SDS011;63913;51.492;10.368;2023-02-15T01:19:15;1.67;;;1.10;;
75316;SDS011;63913;51.492;10.368;2023-02-15T01:21:41;5.27;;;2.20;;
75316;SDS011;63913;51.492;10.368;2023-02-15T01:24:12;4.93;;;2.55;;
75316;SDS011;63913;51.492;10.368;2023-02-15T01:26:38;3.08;;;1.88;;
75316;SDS011;63913;51.492;10.368;2023-02-15T01:29:04;3.45;;;1.63;;
75316;SDS011;63913;51.492;10.368;2023-02-15T01:31:30;2.03;;;1.38;;
75316;SDS011;63913;51.492;10.368;2023-02-15T01:33:55;3.27;;;1.60;;
75316;SDS011;63913;51.492;10.368;2023-02-15T01:36:20;2.17;;;1.40;;
75316;SDS011;63913;51.492;10.368;2023-02-15T01:38:46;2.42;;;1.40;;
75316;SDS011;63913;51.492;10.368;2023-02-15T01:41:11;2.85;;;1.27;;
75316;SDS011;63913;51.492;10.368;2023-02-15T01:43:56;2.25;;;1.27;;
75316;SDS011;63913;51.492;10.368;2023-02-15T01:46:40;5.35;;;1.60;;
75316;SDS011;63913;51.492;10.368;2023-02-15T01:49:14;2.20;;;1.33;;
75316;SDS011;63913;51.492;10.368;2023-02-15T01:51:42;1.98;;;1.60;;
75316;SDS011;63913;51.492;10.368;2023-02-15T01:54:44;2.03;;;1.40;;
75316;SDS011;63913;51.492;10.368;2023-02-15T01:57:14;2.63;;;1.10;;
75316;SDS011;63913;51.492;10.368;2023-02-15T01:59:45;1.90;;;1.23;;
75316;SDS011;63913;51.492;10.368;2023-02-15T02:02:14;3.55;;;1.38;;
75316;SDS011;63913;51.492;10.368;2023-02-15T02:04:46;2.53;;;1.35;;
75316;SDS011;63913;51.492;10.368;2023-02-15T02:07:17;3.63;;;1.60;;
75316;SDS011;63913;51.492;10.368;2023-02-15T02:09:46;2.90;;;1.73;;
75316;SDS011;63913;51.492;10.368;2023-02-15T02:12:13;2.83;;;1.80;;
75316;SDS011;63913;51.492;10.368;2023-02-15T02:14:40;2.90;;;1.40;;
75316;SDS011;63913;51.492;10.368;2023-02-15T02:17:12;3.08;;;1.63;;
75316;SDS011;63913;51.492;10.368;2023-02-15T02:33:45;3.45;;;1.70;;
75316;SDS011;63913;51.492;10.368;2023-02-15T02:39:09;3.30;;;1.67;;
75316;SDS011;63913;51.492;10.368;2023-02-15T02:46:53;1.95;;;1.45;;
75316;SDS011;63913;51.492;10.368;2023-02-15T02:49:31;2.55;;;1.33;;
75316;SDS011;63913;51.492;10.368;2023-02-15T02:52:02;2.33;;;1.60;;
75316;SDS011;63913;51.492;10.368;2023-02-15T02:54:31;4.15;;;1.95;;
75316;SDS011;63913;51.492;10.368;2023-02-15T02:57:00;2.60;;;1.38;;
75316;SDS011;63913;51.492;10.368;2023-02-15T02:59:30;1.85;;;1.30;;
75316;SDS011;63913;51.492;10.368;2023-02-15T03:02:37;2.53;;;1.50;;
75316;SDS011;63913;51.492;10.368;2023-02-15T03:05:01;4.13;;;1.45;;
75316;SDS011;63913;51.492;10.368;2023-02-15T03:07:32;2.45;;;1.50;;
75316;SDS011;63913;51.492;10.368;2023-02-15T03:10:00;1.88;;;1.63;;
75316;SDS011;63913;51.492;10.368;2023-02-15T03:12:35;3.53;;;1.50;;
75316;SDS011;63913;51.492;10.368;2023-02-15T03:17:30;3.45;;;1.67;;
75316;SDS011;63913;51.492;10.368;2023-02-15T03:20:00;2.47;;;1.70;;
75316;SDS011;63913;51.492;10.368;2023-02-15T03:22:33;3.72;;;1.70;;
75316;SDS011;63913;51.492;10.368;2023-02-15T03:25:16;3.55;;;1.75;;
75316;SDS011;63913;51.492;10.368;2023-02-15T03:27:47;3.03;;;1.70;;
75316;SDS011;63913;51.492;10.368;2023-02-15T03:30:18;4.13;;;1.92;;
75316;SDS011;63913;51.492;10.368;2023-02-15T03:32:47;2.80;;;1.67;;
75316;SDS011;63913;51.492;10.368;2023-02-15T03:35:14;2.63;;;1.52;;
75316;SDS011;63913;51.492;10.368;2023-02-15T03:37:41;3.25;;;1.42;;
75316;SDS011;63913;51.492;10.368;2023-02-15T03:43:14;3.25;;;1.60;;
75316;SDS011;63913;51.492;10.368;2023-02-15T03:45:56;3.25;;;1.73;;
75316;SDS011;63913;51.492;10.368;2023-02-15T03:48:29;2.83;;;1.60;;
75316;SDS011;63913;51.492;10.368;2023-02-15T03:51:04;4.22;;;1.52;;
75316;SDS011;63913;51.492;10.368;2023-02-15T03:53:51;2.45;;;1.65;;
75316;SDS011;63913;51.492;10.368;2023-02-15T03:56:19;4.72;;;1.90;;
75316;SDS011;63913;51.492;10.368;2023-02-15T03:58:44;1.73;;;1.20;;
75316;SDS011;63913;51.492;10.368;2023-02-15T04:04:22;3.13;;;1.52;;
75316;SDS011;63913;51.492;10.368;2023-02-15T04:06:55;5.15;;;1.95;;
75316;SDS011;63913;51.492;10.368;2023-02-15T04:09:21;2.95;;;1.85;;
75316;SDS011;63913;51.492;10.368;2023-02-15T04:12:05;2.40;;;1.58;;
75316;SDS011;63913;51.492;10.368;2023-02-15T04:14:31;2.35;;;1.40;;
75316;SDS011;63913;51.492;10.368;2023-02-15T04:17:15;4.50;;;1.25;;
75316;SDS011;63913;51.492;10.368;2023-02-15T04:19:40;1.90;;;1.40;;
75316;SDS011;63913;51.492;10.368;2023-02-15T04:22:24;1.80;;;1.33;;
75316;SDS011;63913;51.492;10.368;2023-02-15T04:25:08;2.85;;;1.60;;
75316;SDS011;63913;51.492;10.368;2023-02-15T04:27:40;2.30;;;1.27;;
75316;SDS011;63913;51.492;10.368;2023-02-15T04:30:07;2.17;;;1.30;;
75316;SDS011;63913;51.492;10.368;2023-02-15T04:32:33;3.03;;;1.35;;
75316;SDS011;63913;51.492;10.368;2023-02-15T04:34:59;3.10;;;1.63;;
75316;SDS011;63913;51.492;10.368;2023-02-15T04:37:25;2.28;;;1.30;;
75316;SDS011;63913;51.492;10.368;2023-02-15T04:39:50;1.77;;;1.23;;
75316;SDS011;63913;51.492;10.368;2023-02-15T04:42:16;1.00;;;0.90;;
75316;SDS011;63913;51.492;10.368;2023-02-15T04:44:41;1.60;;;1.17;;
75316;SDS011;63913;51.492;10.368;2023-02-15T04:47:06;2.13;;;1.25;;
75316;SDS011;63913;51.492;10.368;2023-02-15T04:49:32;1.57;;;1.30;;
75316;SDS011;63913;51.492;10.368;2023-02-15T04:51:57;2.40;;;1.10;;
75316;SDS011;63913;51.492;10.368;2023-02-15T04:54:22;1.60;;;1.20;;
75316;SDS011;63913;51.492;10.368;2023-02-15T04:56:48;2.58;;;1.20;;
75316;SDS011;63913;51.492;10.368;2023-02-15T04:59:13;1.98;;;1.38;;
75316;SDS011;63913;51.492;10.368;2023-02-15T05:01:39;3.15;;;0.93;;
75316;SDS011;63913;51.492;10.368;2023-02-15T05:04:04;3.20;;;1.50;;
75316;SDS011;63913;51.492;10.368;2023-02-15T05:06:29;2.20;;;1.43;;
75316;SDS011;63913;51.492;10.368;2023-02-15T05:08:55;1.98;;;1.10;;
75316;SDS011;63913;51.492;10.368;2023-02-15T05:11:20;1.85;;;1.08;;
75316;SDS011;63913;51.492;10.368;2023-02-15T05:13:46;1.13;;;0.90;;
75316;SDS011;63913;51.492;10.368;2023-02-15T05:16:11;1.70;;;1.10;;
75316;SDS011;63913;51.492;10.368;2023-02-15T05:18:37;1.67;;;1.15;;
75316;SDS011;63913;51.492;10.368;2023-02-15T05:21:02;1.70;;;1.10;;
75316;SDS011;63913;51.492;10.368;2023-02-15T05:23:28;6.35;;;2.40;;
75316;SDS011;63913;51.492;10.368;2023-02-15T05:25:53;14.23;;;4.60;;
75316;SDS011;63913;51.492;10.368;2023-02-15T05:28:37;5.00;;;2.08;;
75316;SDS011;63913;51.492;10.368;2023-02-15T05:31:07;2.10;;;1.50;;
75316;SDS011;63913;51.492;10.368;2023-02-15T05:33:36;1.20;;;0.90;;
75316;SDS011;63913;51.492;10.368;2023-02-15T05:36:02;1.25;;;1.10;;
75316;SDS011;63913;51.492;10.368;2023-02-15T05:38:28;1.58;;;0.93;;
75316;SDS011;63913;51.492;10.368;2023-02-15T05:40:53;1.95;;;0.95;;
75316;SDS011;63913;51.492;10.368;2023-02-15T05:43:19;2.80;;;1.25;;
75316;SDS011;63913;51.492;10.368;2023-02-15T05:45:45;1.83;;;1.30;;
75316;SDS011;63913;51.492;10.368;2023-02-15T05:48:20;2.33;;;1.15;;
75316;SDS011;63913;51.492;10.368;2023-02-15T05:50:56;1.25;;;0.90;;
75316;SDS011;63913;51.492;10.368;2023-02-15T05:53:34;2.00;;;1.23;;
75316;SDS011;63913;51.492;10.368;2023-02-15T05:56:01;1.92;;;0.98;;
75316;SDS011;63913;51.492;10.368;2023-02-15T05:58:28;2.60;;;1.60;;
75316;SDS011;63913;51.492;10.368;2023-02-15T06:00:55;2.35;;;1.27;;
75316;SDS011;63913;51.492;10.368;2023-02-15T06:03:21;2.10;;;1.30;;
75316;SDS011;63913;51.492;10.368;2023-02-15T06:05:47;2.90;;;1.27;;
75316;SDS011;63913;51.492;10.368;2023-02-15T06:08:12;2.00;;;1.45;;
75316;SDS011;63913;51.492;10.368;2023-02-15T06:10:38;1.07;;;0.83;;
75316;SDS011;63913;51.492;10.368;2023-02-15T06:13:05;3.15;;;1.60;;
75316;SDS011;63913;51.492;10.368;2023-02-15T06:15:30;2.10;;;1.60;;
75316;SDS011;63913;51.492;10.368;2023-02-15T06:17:56;3.47;;;1.40;;
75316;SDS011;63913;51.492;10.368;2023-02-15T06:20:21;2.67;;;1.40;;
75316;SDS011;63913;51.492;10.368;2023-02-15T06:22:46;3.00;;;1.20;;
75316;SDS011;63913;51.492;10.368;2023-02-15T06:25:12;2.13;;;1.40;;
75316;SDS011;63913;51.492;10.368;2023-02-15T06:27:37;1.67;;;1.23;;
75316;SDS011;63913;51.492;10.368;2023-02-15T06:30:05;1.90;;;1.42;;
75316;SDS011;63913;51.492;10.368;2023-02-15T06:32:31;4.38;;;1.98;;
75316;SDS011;63913;51.492;10.368;2023-02-15T06:34:57;7.30;;;3.22;;
75316;SDS011;63913;51.492;10.368;2023-02-15T06:37:22;3.67;;;1.80;;
75316;SDS011;63913;51.492;10.368;2023-02-15T06:39:47;5.30;;;2.40;;
75316;SDS011;63913;51.492;10.368;2023-02-15T06:42:13;3.90;;;2.20;;
75316;SDS011;63913;51.492;10.368;2023-02-15T06:44:38;3.33;;;1.75;;
75316;SDS011;63913;51.492;10.368;2023-02-15T06:47:03;1.77;;;1.40;;
75316;SDS011;63913;51.492;10.368;2023-02-15T06:49:29;3.60;;;1.35;;
75316;SDS011;63913;51.492;10.368;2023-02-15T06:51:54;2.53;;;1.43;;
75316;SDS011;63913;51.492;10.368;2023-02-15T06:54:19;2.47;;;1.10;;
75316;SDS011;63913;51.492;10.368;2023-02-15T06:56:44;2.63;;;1.60;;
75316;SDS011;63913;51.492;10.368;2023-02-15T06:59:10;3.10;;;1.37;;
75316;SDS011;63913;51.492;10.368;2023-02-15T07:01:35;2.35;;;1.52;;
75316;SDS011;63913;51.492;10.368;2023-02-15T07:04:02;4.45;;;1.75;;
75316;SDS011;63913;51.492;10.368;2023-02-15T07:06:30;3.55;;;1.80;;
75316;SDS011;63913;51.492;10.368;2023-02-15T07:08:57;5.05;;;1.20;;
75316;SDS011;63913;51.492;10.368;2023-02-15T07:11:22;6.00;;;1.50;;
75316;SDS011;63913;51.492;10.368;2023-02-15T07:14:06;3.05;;;1.55;;
75316;SDS011;63913;51.492;10.368;2023-02-15T07:16:31;1.07;;;0.80;;
75316;SDS011;63913;51.492;10.368;2023-02-15T07:18:56;2.10;;;1.60;;
75316;SDS011;63913;51.492;10.368;2023-02-15T07:21:21;2.87;;;1.23;;
75316;SDS011;63913;51.492;10.368;2023-02-15T07:23:47;3.87;;;1.30;;
75316;SDS011;63913;51.492;10.368;2023-02-15T07:26:12;2.75;;;1.15;;
75316;SDS011;63913;51.492;10.368;2023-02-15T07:28:38;3.15;;;1.00;;
75316;SDS011;63913;51.492;10.368;2023-02-15T07:31:03;1.70;;;1.00;;
75316;SDS011;63913;51.492;10.368;2023-02-15T07:33:30;1.50;;;1.10;;
75316;SDS011;63913;51.492;10.368;2023-02-15T07:35:57;2.10;;;1.17;;
75316;SDS011;63913;51.492;10.368;2023-02-15T07:38:24;2.10;;;1.23;;
75316;SDS011;63913;51.492;10.368;2023-02-15T07:40:51;2.03;;;1.10;;
75316;SDS011;63913;51.492;10.368;2023-02-15T07:43:16;2.22;;;1.20;;
75316;SDS011;63913;51.492;10.368;2023-02-15T07:45:42;2.00;;;1.15;;
75316;SDS011;63913;51.492;10.368;2023-02-15T07:48:07;2.25;;;1.30;;
75316;SDS011;63913;51.492;10.368;2023-02-15T07:50:33;1.50;;;1.40;;
75316;SDS011;63913;51.492;10.368;2023-02-15T07:53:01;2.13;;;1.20;;
75316;SDS011;63913;51.492;10.368;2023-02-15T07:55:27;1.98;;;1.10;;
75316;SDS011;63913;51.492;10.368;2023-02-15T07:57:52;2.77;;;1.30;;
75316;SDS011;63913;51.492;10.368;2023-02-15T08:00:19;1.90;;;1.23;;
75316;SDS011;63913;51.492;10.368;2023-02-15T08:02:58;2.03;;;1.00;;
75316;SDS011;63913;51.492;10.368;2023-02-15T08:08:05;2.00;;;1.00;;
75316;SDS011;63913;51.492;10.368;2023-02-15T08:10:31;2.42;;;1.10;;
75316;SDS011;63913;51.492;10.368;2023-02-15T08:13:15;2.95;;;1.70;;
75316;SDS011;63913;51.492;10.368;2023-02-15T08:15:47;3.63;;;1.60;;
75316;SDS011;63913;51.492;10.368;2023-02-15T08:18:13;5.72;;;1.88;;
75316;SDS011;63913;51.492;10.368;2023-02-15T08:20:39;4.90;;;1.93;;
75316;SDS011;63913;51.492;10.368;2023-02-15T08:23:04;3.40;;;1.70;;
75316;SDS011;63913;51.492;10.368;2023-02-15T08:25:29;3.25;;;1.38;;
75316;SDS011;63913;51.492;10.368;2023-02-15T08:27:55;3.37;;;1.40;;
75316;SDS011;63913;51.492;10.368;2023-02-15T08:30:20;2.33;;;1.43;;
75316;SDS011;63913;51.492;10.368;2023-02-15T08:32:45;2.50;;;1.42;;
75316;SDS011;63913;51.492;10.368;2023-02-15T08:35:11;3.58;;;1.50;;
75316;SDS011;63913;51.492;10.368;2023-02-15T08:37:36;2.15;;;1.35;;
75316;SDS011;63913;51.492;10.368;2023-02-15T08:40:02;3.10;;;1.60;;
75316;SDS011;63913;51.492;10.368;2023-02-15T08:42:27;5.43;;;2.53;;
75316;SDS011;63913;51.492;10.368;2023-02-15T08:44:53;8.27;;;3.58;;
75316;SDS011;63913;51.492;10.368;2023-02-15T08:47:18;7.07;;;3.70;;
75316;SDS011;63913;51.492;10.368;2023-02-15T08:49:43;5.57;;;3.33;;
75316;SDS011;63913;51.492;10.368;2023-02-15T08:52:09;4.37;;;2.63;;
75316;SDS011;63913;51.492;10.368;2023-02-15T08:54:34;4.03;;;2.37;;
75316;SDS011;63913;51.492;10.368;2023-02-15T08:56:59;6.27;;;3.13;;
75316;SDS011;63913;51.492;10.368;2023-02-15T08:59:25;5.60;;;2.50;;
75316;SDS011;63913;51.492;10.368;2023-02-15T09:01:52;4.60;;;2.42;;
75316;SDS011;63913;51.492;10.368;2023-02-15T09:04:18;3.63;;;2.17;;
75316;SDS011;63913;51.492;10.368;2023-02-15T09:06:44;4.50;;;2.40;;
75316;SDS011;63913;51.492;10.368;2023-02-15T09:09:11;4.80;;;1.83;;
75316;SDS011;63913;51.492;10.368;2023-02-15T09:11:37;2.97;;;2.13;;
75316;SDS011;63913;51.492;10.368;2023-02-15T09:14:05;5.28;;;2.58;;
75316;SDS011;63913;51.492;10.368;2023-02-15T09:16:34;3.83;;;2.60;;
75316;SDS011;63913;51.492;10.368;2023-02-15T09:19:02;4.82;;;2.55;;
75316;SDS011;63913;51.492;10.368;2023-02-15T09:21:30;5.28;;;3.22;;
75316;SDS011;63913;51.492;10.368;2023-02-15T09:23:57;5.93;;;3.30;;
75316;SDS011;63913;51.492;10.368;2023-02-15T09:26:24;9.05;;;4.53;;
75316;SDS011;63913;51.492;10.368;2023-02-15T09:28:52;5.47;;;3.28;;
75316;SDS011;63913;51.492;10.368;2023-02-15T09:31:21;3.67;;;2.33;;
75316;SDS011;63913;51.492;10.368;2023-02-15T09:33:48;7.10;;;3.10;;
75316;SDS011;63913;51.492;10.368;2023-02-15T09:38:46;7.78;;;3.75;;
75316;SDS011;63913;51.492;10.368;2023-02-15T09:49:02;8.40;;;3.13;;
75316;SDS011;63913;51.492;10.368;2023-02-15T09:51:44;7.47;;;3.50;;
75316;SDS011;63913;51.492;10.368;2023-02-15T09:54:43;6.45;;;3.50;;
75316;SDS011;63913;51.492;10.368;2023-02-15T10:00:12;8.95;;;3.90;;
75316;SDS011;63913;51.492;10.368;2023-02-15T10:28:20;8.75;;;4.43;;
75316;SDS011;63913;51.492;10.368;2023-02-15T10:34:35;9.30;;;4.90;;
75316;SDS011;63913;51.492;10.368;2023-02-15T10:42:06;5.70;;;3.30;;
75316;SDS011;63913;51.492;10.368;2023-02-15T10:52:33;9.30;;;4.30;;
75316;SDS011;63913;51.492;10.368;2023-02-15T10:55:33;8.13;;;4.35;;
75316;SDS011;63913;51.492;10.368;2023-02-15T11:00:41;8.35;;;4.00;;
75316;SDS011;63913;51.492;10.368;2023-02-15T11:03:18;6.90;;;3.80;;
75316;SDS011;63913;51.492;10.368;2023-02-15T11:06:09;8.15;;;4.18;;
75316;SDS011;63913;51.492;10.368;2023-02-15T11:08:39;8.65;;;4.72;;
75316;SDS011;63913;51.492;10.368;2023-02-15T11:14:12;8.73;;;4.57;;
75316;SDS011;63913;51.492;10.368;2023-02-15T11:16:43;8.02;;;4.68;;
75316;SDS011;63913;51.492;10.368;2023-02-15T11:19:13;6.60;;;4.38;;
75316;SDS011;63913;51.492;10.368;2023-02-15T11:21:48;6.38;;;3.70;;
75316;SDS011;63913;51.492;10.368;2023-02-15T11:24:16;5.85;;;3.42;;
75316;SDS011;63913;51.492;10.368;2023-02-15T11:26:48;7.07;;;4.10;;
75316;SDS011;63913;51.492;10.368;2023-02-15T11:29:25;5.53;;;3.50;;
75316;SDS011;63913;51.492;10.368;2023-02-15T11:31:58;6.82;;;3.38;;
75316;SDS011;63913;51.492;10.368;2023-02-15T11:34:36;6.55;;;3.53;;
75316;SDS011;63913;51.492;10.368;2023-02-15T11:37:18;5.35;;;3.20;;
75316;SDS011;63913;51.492;10.368;2023-02-15T11:39:48;6.35;;;3.88;;
75316;SDS011;63913;51.492;10.368;2023-02-15T11:42:18;6.07;;;3.70;;
75316;SDS011;63913;51.492;10.368;2023-02-15T11:47:29;7.82;;;3.95;;
75316;SDS011;63913;51.492;10.368;2023-02-15T11:49:54;12.88;;;5.78;;
75316;SDS011;63913;51.492;10.368;2023-02-15T11:52:20;13.68;;;5.93;;
75316;SDS011;63913;51.492;10.368;2023-02-15T11:54:46;9.20;;;4.60;;
75316;SDS011;63913;51.492;10.368;2023-02-15T11:57:36;12.45;;;5.38;;
75316;SDS011;63913;51.492;10.368;2023-02-15T12:00:29;7.68;;;4.18;;
75316;SDS011;63913;51.492;10.368;2023-02-15T12:03:11;21.02;;;5.88;;
75316;SDS011;63913;51.492;10.368;2023-02-15T12:05:42;8.48;;;4.55;;
75316;SDS011;63913;51.492;10.368;2023-02-15T12:08:19;6.93;;;3.95;;
75316;SDS011;63913;51.492;10.368;2023-02-15T12:10:51;6.85;;;3.92;;
75316;SDS011;63913;51.492;10.368;2023-02-15T12:13:23;8.00;;;4.50;;
75316;SDS011;63913;51.492;10.368;2023-02-15T12:15:52;7.63;;;3.90;;
75316;SDS011;63913;51.492;10.368;2023-02-15T12:21:07;7.95;;;4.15;;
75316;SDS011;63913;51.492;10.368;2023-02-15T12:23:33;9.43;;;5.05;;
75316;SDS011;63913;51.492;10.368;2023-02-15T12:26:05;6.35;;;3.90;;
75316;SDS011;63913;51.492;10.368;2023-02-15T12:28:34;8.88;;;4.38;;
75316;SDS011;63913;51.492;10.368;2023-02-15T12:31:03;6.95;;;3.90;;
75316;SDS011;63913;51.492;10.368;2023-02-15T12:33:35;7.78;;;4.43;;
75316;SDS011;63913;51.492;10.368;2023-02-15T12:38:40;6.22;;;4.10;;
75316;SDS011;63913;51.492;10.368;2023-02-15T12:43:43;7.43;;;4.60;;
75316;SDS011;63913;51.492;10.368;2023-02-15T12:46:26;8.13;;;4.28;;
75316;SDS011;63913;51.492;10.368;2023-02-15T12:49:05;7.55;;;3.90;;
75316;SDS011;63913;51.492;10.368;2023-02-15T12:51:49;8.55;;;4.72;;
75316;SDS011;63913;51.492;10.368;2023-02-15T12:54:38;7.93;;;4.28;;
75316;SDS011;63913;51.492;10.368;2023-02-15T12:59:56;7.38;;;4.25;;
75316;SDS011;63913;51.492;10.368;2023-02-15T13:07:53;7.70;;;3.80;;
75316;SDS011;63913;51.492;10.368;2023-02-15T13:12:58;7.70;;;3.55;;
75316;SDS011;63913;51.492;10.368;2023-02-15T13:15:36;8.20;;;4.03;;
75316;SDS011;63913;51.492;10.368;2023-02-15T13:18:04;7.68;;;3.97;;
75316;SDS011;63913;51.492;10.368;2023-02-15T13:20:35;7.00;;;4.22;;
75316;SDS011;63913;51.492;10.368;2023-02-15T13:23:03;8.38;;;4.18;;
75316;SDS011;63913;51.492;10.368;2023-02-15T13:25:42;9.40;;;5.03;;
75316;SDS011;63913;51.492;10.368;2023-02-15T13:28:15;8.65;;;4.82;;
75316;SDS011;63913;51.492;10.368;2023-02-15T13:30:44;9.10;;;4.60;;
75316;SDS011;63913;51.492;10.368;2023-02-15T13:33:21;7.15;;;3.95;;
75316;SDS011;63913;51.492;10.368;2023-02-15T14:07:17;6.70;;;3.92;;
75316;SDS011;63913;51.492;10.368;2023-02-15T14:31:41;12.23;;;5.97;;
75316;SDS011;63913;51.492;10.368;2023-02-15T14:34:18;10.07;;;4.88;;
75316;SDS011;63913;51.492;10.368;2023-02-15T14:36:49;8.32;;;5.03;;
75316;SDS011;63913;51.492;10.368;2023-02-15T14:42:40;7.18;;;4.30;;
75316;SDS011;63913;51.492;10.368;2023-02-15T14:50:42;8.40;;;5.00;;
75316;SDS011;63913;51.492;10.368;2023-02-15T14:56:06;8.88;;;5.15;;
75316;SDS011;63913;51.492;10.368;2023-02-15T15:01:30;7.93;;;4.35;;
75316;SDS011;63913;51.492;10.368;2023-02-15T15:04:02;7.07;;;4.47;;
75316;SDS011;63913;51.492;10.368;2023-02-15T15:06:34;7.97;;;4.88;;
75316;SDS011;63913;51.492;10.368;2023-02-15T15:11:51;11.45;;;5.95;;
75316;SDS011;63913;51.492;10.368;2023-02-15T15:14:38;8.45;;;4.95;;
75316;SDS011;63913;51.492;10.368;2023-02-15T15:17:05;8.18;;;4.75;;
75316;SDS011;63913;51.492;10.368;2023-02-15T15:22:18;12.23;;;5.88;;
75316;SDS011;63913;51.492;10.368;2023-02-15T15:32:38;17.75;;;8.25;;
75316;SDS011;63913;51.492;10.368;2023-02-15T15:35:27;11.07;;;5.53;;
75316;SDS011;63913;51.492;10.368;2023-02-15T15:46:37;15.88;;;8.55;;
75316;SDS011;63913;51.492;10.368;2023-02-15T15:49:08;18.50;;;7.82;;
75316;SDS011;63913;51.492;10.368;2023-02-15T15:51:39;15.80;;;8.00;;
75316;SDS011;63913;51.492;10.368;2023-02-15T15:54:06;28.30;;;12.68;;
75316;SDS011;63913;51.492;10.368;2023-02-15T15:56:40;12.45;;;6.18;;
75316;SDS011;63913;51.492;10.368;2023-02-15T15:59:12;15.65;;;7.18;;
75316;SDS011;63913;51.492;10.368;2023-02-15T16:01:43;19.73;;;9.05;;
75316;SDS011;63913;51.492;10.368;2023-02-15T16:04:13;14.13;;;6.72;;
75316;SDS011;63913;51.492;10.368;2023-02-15T16:06:47;10.63;;;5.50;;
75316;SDS011;63913;51.492;10.368;2023-02-15T16:09:17;15.88;;;6.50;;
75316;SDS011;63913;51.492;10.368;2023-02-15T16:11:46;13.40;;;6.35;;
75316;SDS011;63913;51.492;10.368;2023-02-15T16:14:23;9.45;;;5.07;;
75316;SDS011;63913;51.492;10.368;2023-02-15T16:16:54;15.98;;;7.70;;
75316;SDS011;63913;51.492;10.368;2023-02-15T16:19:27;8.55;;;5.03;;
75316;SDS011;63913;51.492;10.368;2023-02-15T16:21:54;23.20;;;11.50;;
75316;SDS011;63913;51.492;10.368;2023-02-15T16:24:30;20.50;;;10.68;;
75316;SDS011;63913;51.492;10.368;2023-02-15T16:29:53;9.60;;;4.75;;
75316;SDS011;63913;51.492;10.368;2023-02-15T16:32:25;7.73;;;4.57;;
75316;SDS011;63913;51.492;10.368;2023-02-15T16:37:19;6.90;;;3.40;;
75316;SDS011;63913;51.492;10.368;2023-02-15T16:39:51;8.38;;;4.18;;
75316;SDS011;63913;51.492;10.368;2023-02-15T16:42:16;9.05;;;4.70;;
75316;SDS011;63913;51.492;10.368;2023-02-15T16:44:47;8.20;;;3.33;;
75316;SDS011;63913;51.492;10.368;2023-02-15T16:47:23;6.20;;;3.90;;
75316;SDS011;63913;51.492;10.368;2023-02-15T16:49:56;7.82;;;4.30;;
75316;SDS011;63913;51.492;10.368;2023-02-15T16:52:26;8.30;;;4.05;;
75316;SDS011;63913;51.492;10.368;2023-02-15T16:55:03;9.30;;;5.20;;
75316;SDS011;63913;51.492;10.368;2023-02-15T16:57:37;8.65;;;4.50;;
75316;SDS011;63913;51.492;10.368;2023-02-15T17:00:04;6.53;;;4.25;;
75316;SDS011;63913;51.492;10.368;2023-02-15T17:02:33;7.00;;;3.65;;
75316;SDS011;63913;51.492;10.368;2023-02-15T17:07:42;6.65;;;3.50;;
75316;SDS011;63913;51.492;10.368;2023-02-15T17:10:31;6.78;;;3.65;;
75316;SDS011;63913;51.492;10.368;2023-02-15T17:13:00;5.93;;;3.25;;
75316;SDS011;63913;51.492;10.368;2023-02-15T17:15:35;8.25;;;4.35;;
75316;SDS011;63913;51.492;10.368;2023-02-15T17:18:38;9.35;;;4.30;;
75316;SDS011;63913;51.492;10.368;2023-02-15T17:21:08;8.60;;;4.15;;
75316;SDS011;63913;51.492;10.368;2023-02-15T17:23:41;8.60;;;3.83;;
75316;SDS011;63913;51.492;10.368;2023-02-15T17:26:13;6.68;;;3.47;;
75316;SDS011;63913;51.492;10.368;2023-02-15T17:28:45;6.93;;;3.50;;
75316;SDS011;63913;51.492;10.368;2023-02-15T17:31:12;9.73;;;4.07;;
75316;SDS011;63913;51.492;10.368;2023-02-15T17:33:40;9.02;;;4.75;;
75316;SDS011;63913;51.492;10.368;2023-02-15T17:38:40;8.43;;;5.20;;
75316;SDS011;63913;51.492;10.368;2023-02-15T17:41:24;8.48;;;3.88;;
75316;SDS011;63913;51.492;10.368;2023-02-15T17:43:50;10.93;;;4.35;;
75316;SDS011;63913;51.492;10.368;2023-02-15T17:46:15;7.53;;;3.77;;
75316;SDS011;63913;51.492;10.368;2023-02-15T17:48:45;10.68;;;5.32;;
75316;SDS011;63913;51.492;10.368;2023-02-15T17:51:12;9.48;;;4.35;;
75316;SDS011;63913;51.492;10.368;2023-02-15T17:53:39;9.27;;;4.38;;
75316;SDS011;63913;51.492;10.368;2023-02-15T17:56:04;9.43;;;4.28;;
75316;SDS011;63913;51.492;10.368;2023-02-15T17:58:34;10.05;;;3.83;;
75316;SDS011;63913;51.492;10.368;2023-02-15T18:01:01;5.90;;;3.80;;
75316;SDS011;63913;51.492;10.368;2023-02-15T18:03:49;6.55;;;3.50;;
75316;SDS011;63913;51.492;10.368;2023-02-15T18:06:35;6.88;;;4.05;;
75316;SDS011;63913;51.492;10.368;2023-02-15T18:09:22;10.75;;;3.85;;
75316;SDS011;63913;51.492;10.368;2023-02-15T18:12:21;6.90;;;3.30;;
75316;SDS011;63913;51.492;10.368;2023-02-15T18:14:46;7.53;;;3.33;;
75316;SDS011;63913;51.492;10.368;2023-02-15T18:17:13;7.28;;;3.78;;
75316;SDS011;63913;51.492;10.368;2023-02-15T18:19:40;8.82;;;4.28;;
75316;SDS011;63913;51.492;10.368;2023-02-15T18:22:10;7.95;;;3.67;;
75316;SDS011;63913;51.492;10.368;2023-02-15T18:24:36;7.53;;;3.95;;
75316;SDS011;63913;51.492;10.368;2023-02-15T18:27:03;9.93;;;4.25;;